Terminal Aerodrome Forecast
Issued by NWS Green Bay, WI

Home | Current Version | Previous Version | Graphics & Text | Print | Product List | Glossary On
Versions: 1 2 3 4 5 6 7 8 9 10 11 12 13 14 15 16 17 18 19 20 21
000
FTUS43 KGRB 191733
TAFGRB
TAF
KGRB 191733Z 1918/2018 21011G18KT P6SM BKN250 WS018/25035KT
     FM192300 22011KT P6SM BKN250 WS018/27040KT
     FM200600 24009KT P6SM BKN150
     FM201500 27004KT P6SM BKN150=

USA.gov is the U.S. government's official web portal to all federal, state and local government web resources and services.